Time;durP1;ratioP1;P1;durP2;ratioP2;P2;SDS_P1;SDS_P2;PMS_P1;PMS_P2;Temp;Humidity;BMP_temperature;BMP_pressure;BME280_temperature;BME280_humidity;BME280_pressure;Samples;Min_cycle;Max_cycle;Signal;HPM_P1;HPM_P2
2022/01/13 00:01:56;;;;;;;23.60;14.95;;;;;;;-3.93;100.00;101889.00;4993429;28;20026;-62
2022/01/13 00:04:22;;;;;;;36.60;21.63;;;;;;;-4.23;100.00;101859.84;4994152;28;20034;-62
2022/01/13 00:06:47;;;;;;;34.10;19.85;;;;;;;-4.15;100.00;101842.19;4976338;28;20065;-62
2022/01/13 00:09:14;;;;;;;29.02;18.20;;;;;;;-3.72;100.00;101893.66;4993806;28;20485;-65
2022/01/13 00:11:40;;;;;;;31.65;18.30;;;;;;;-4.11;100.00;101898.69;4976593;28;20493;-63
2022/01/13 00:16:43;;;;;;;34.90;21.08;;;;;;;-4.05;100.00;101886.66;4993806;28;20038;-62
2022/01/13 00:21:43;;;;;;;69.50;35.25;;;;;;;-3.94;100.00;101917.13;4993645;28;20113;-65
2022/01/13 00:24:12;;;;;;;59.33;33.13;;;;;;;-4.14;100.00;101920.81;4993408;28;20416;-64
2022/01/13 00:26:38;;;;;;;44.13;25.63;;;;;;;-4.66;100.00;101894.41;4993381;28;20027;-62
2022/01/13 00:29:04;;;;;;;41.20;24.17;;;;;;;-4.78;100.00;101892.75;4993233;28;20044;-63
2022/01/13 00:31:33;;;;;;;34.75;19.65;;;;;;;-4.76;100.00;101921.00;4993586;28;20026;-62
2022/01/13 00:34:02;;;;;;;30.80;18.52;;;;;;;-4.65;100.00;101839.06;4993423;28;20030;-62
2022/01/13 00:36:30;;;;;;;42.53;23.75;;;;;;;-4.77;100.00;101925.06;4992181;28;20037;-63
2022/01/13 00:38:57;;;;;;;39.85;21.98;;;;;;;-4.21;100.00;101875.69;4975863;28;20339;-62
2022/01/13 00:41:27;;;;;;;36.92;20.25;;;;;;;-4.29;100.00;101912.44;4992977;28;20038;-62
2022/01/13 00:43:53;;;;;;;42.17;22.40;;;;;;;-4.62;100.00;101873.13;4975902;28;20035;-64
2022/01/13 00:46:22;;;;;;;41.08;22.08;;;;;;;-5.16;100.00;101840.72;4993546;28;20526;-63
2022/01/13 00:48:48;;;;;;;34.72;19.45;;;;;;;-4.62;100.00;101890.50;4975596;28;20037;-63
2022/01/13 00:51:14;;;;;;;35.70;20.75;;;;;;;-4.64;100.00;101924.25;4993471;28;20034;-62
2022/01/13 00:53:40;;;;;;;43.17;21.67;;;;;;;-4.58;100.00;101872.56;4993037;28;20045;-64
2022/01/13 00:56:06;;;;;;;39.67;21.63;;;;;;;-4.64;100.00;101872.16;4992564;28;20026;-63
2022/01/13 00:58:33;;;;;;;36.30;19.95;;;;;;;-4.38;100.00;101877.97;4992915;28;20030;-62
2022/01/13 01:03:35;;;;;;;34.00;17.50;;;;;;;-4.59;100.00;101938.66;4211550;26;9999992;-62
2022/01/13 01:06:03;;;;;;;31.08;17.67;;;;;;;-4.46;100.00;101896.50;4992237;28;20042;-62
2022/01/13 01:08:29;;;;;;;33.95;17.08;;;;;;;-4.05;100.00;101899.06;4992714;28;20029;-62
2022/01/13 01:10:55;;;;;;;33.33;17.63;;;;;;;-4.60;100.00;101933.59;4992470;28;20030;-62
2022/01/13 01:13:27;;;;;;;34.13;18.63;;;;;;;-4.24;100.00;101935.94;4992449;28;20582;-62
2022/01/13 01:15:55;;;;;;;34.90;18.45;;;;;;;-4.54;100.00;101922.47;4992765;28;20022;-62
2022/01/13 01:23:56;;;;;;;63.30;24.65;;;;;;;-4.65;100.00;101903.53;4991856;28;20039;-62
2022/01/13 01:31:32;;;;;;;30.20;15.75;;;;;;;-4.72;100.00;101952.66;4992319;28;20030;-62
2022/01/13 01:34:40;;;;;;;27.77;14.82;;;;;;;-4.32;100.00;101949.50;4991754;28;20108;-62
2022/01/13 01:36:51;;;;;;;33.90;15.75;;;;;;;-5.05;100.00;101915.78;4991874;28;20044;-62
2022/01/13 01:39:17;;;;;;;33.30;17.88;;;;;;;-4.68;100.00;101952.97;4991889;28;20033;-62
2022/01/13 01:41:45;;;;;;;34.53;19.23;;;;;;;-4.74;100.00;101950.09;4992044;28;20038;-62
2022/01/13 01:44:14;;;;;;;32.78;16.77;;;;;;;-4.45;100.00;101945.38;4990504;28;20038;-62
2022/01/13 01:46:45;;;;;;;26.63;15.50;;;;;;;-4.29;100.00;101942.22;4992015;28;20034;-62
2022/01/13 01:49:21;;;;;;;27.10;14.88;;;;;;;-4.38;100.00;101963.13;4992100;28;20034;-62
2022/01/13 01:51:59;;;;;;;23.75;13.73;;;;;;;-4.66;100.00;101905.94;4990752;28;20409;-63
2022/01/13 01:54:28;;;;;;;23.33;12.90;;;;;;;-4.37;100.00;101948.31;4991740;28;20069;-63
2022/01/13 01:56:54;;;;;;;21.25;11.82;;;;;;;-5.21;100.00;101904.00;4989794;28;20093;-62
2022/01/13 01:59:24;;;;;;;22.90;12.25;;;;;;;-5.10;100.00;101957.59;4990686;28;20034;-63
2022/01/13 02:01:51;;;;;;;30.13;14.73;;;;;;;-5.25;100.00;101944.19;4991595;28;20033;-63
2022/01/13 02:04:18;;;;;;;24.20;12.88;;;;;;;-4.71;100.00;101945.31;4991895;28;20035;-62
2022/01/13 02:06:44;;;;;;;22.98;11.90;;;;;;;-5.64;100.00;101900.28;4991647;28;20094;-62
2022/01/13 02:09:12;;;;;;;21.23;11.90;;;;;;;-5.00;100.00;101952.50;4991586;28;20042;-62
2022/01/13 02:11:42;;;;;;;20.65;11.77;;;;;;;-5.15;100.00;101923.38;4990068;28;20125;-62
2022/01/13 02:14:30;;;;;;;23.85;12.10;;;;;;;-5.25;100.00;101897.13;4990408;28;20042;-62
2022/01/13 02:17:09;;;;;;;21.40;11.20;;;;;;;-5.58;100.00;101918.00;4991201;28;20046;-62
2022/01/13 02:19:40;;;;;;;18.02;10.18;;;;;;;-5.04;100.00;101896.03;4991304;28;20030;-62
2022/01/13 02:22:06;;;;;;;21.40;11.63;;;;;;;-5.54;100.00;101902.59;4991663;28;20034;-64
2022/01/13 02:24:33;;;;;;;22.52;11.60;;;;;;;-5.04;100.00;101901.00;4989961;28;20040;-62
2022/01/13 02:26:58;;;;;;;20.95;11.85;;;;;;;-5.05;100.00;101940.56;4989720;28;20033;-62
2022/01/13 02:29:24;;;;;;;20.17;11.88;;;;;;;-4.58;100.00;101942.00;4991502;28;20026;-62
2022/01/13 02:31:50;;;;;;;20.45;11.45;;;;;;;-4.52;100.00;101945.75;4990543;28;20042;-61
2022/01/13 02:34:16;;;;;;;31.85;18.17;;;;;;;-5.12;100.00;101874.84;4971638;28;20145;-62
2022/01/13 02:36:44;;;;;;;24.67;14.30;;;;;;;-5.57;100.00;101885.09;4972012;28;20027;-62
2022/01/13 02:39:09;;;;;;;22.73;11.05;;;;;;;-5.51;100.00;101887.97;4971994;28;20503;-62
2022/01/13 02:41:35;;;;;;;19.67;11.15;;;;;;;-5.51;100.00;101905.31;4971736;28;20027;-63
2022/01/13 02:44:00;;;;;;;18.67;11.63;;;;;;;-5.14;100.00;101925.94;4972109;28;20114;-62
2022/01/13 02:49:11;;;;;;;20.65;12.55;;;;;;;-5.18;100.00;101915.72;4971440;28;20038;-64
2022/01/13 02:51:38;;;;;;;25.17;14.18;;;;;;;-5.44;100.00;101909.03;4970367;28;20034;-63
2022/01/13 02:54:05;;;;;;;21.13;12.38;;;;;;;-4.65;100.00;101954.75;4971734;28;20027;-64
2022/01/13 02:56:31;;;;;;;20.73;11.68;;;;;;;-5.07;100.00;101900.78;4970382;28;20031;-64
2022/01/13 02:58:57;;;;;;;21.60;11.60;;;;;;;-5.78;100.00;101896.00;4972661;28;20049;-64
2022/01/13 03:01:23;;;;;;;20.17;11.05;;;;;;;-5.17;100.00;101924.88;4975672;28;20412;-64
2022/01/13 03:03:48;;;;;;;19.75;11.35;;;;;;;-4.89;100.00;101955.69;4974285;28;20081;-64
2022/01/13 03:06:16;;;;;;;20.73;10.95;;;;;;;-5.02;100.00;101955.63;4991725;28;20053;-63
2022/01/13 03:08:44;;;;;;;19.15;10.93;;;;;;;-4.99;100.00;101954.19;4993774;28;20045;-64
2022/01/13 03:11:10;;;;;;;19.85;11.55;;;;;;;-4.80;100.00;101894.28;4995088;28;20418;-64
2022/01/13 03:13:36;;;;;;;45.83;24.70;;;;;;;-5.18;100.00;101889.31;4994654;28;20030;-63
2022/01/13 03:16:08;;;;;;;40.08;23.38;;;;;;;-5.23;100.00;101904.66;4994593;28;20432;-64
2022/01/13 03:18:35;;;;;;;54.60;30.45;;;;;;;-4.81;100.00;101932.22;4994514;28;20034;-62
2022/01/13 03:21:00;;;;;;;46.33;26.75;;;;;;;-5.16;100.00;101936.50;4994800;28;20172;-61
2022/01/13 03:23:25;;;;;;;40.25;24.88;;;;;;;-5.15;100.00;101945.66;4995255;28;20030;-62
2022/01/13 03:25:51;;;;;;;38.13;23.88;;;;;;;-5.07;100.00;101913.16;4994746;28;20030;-62
2022/01/13 03:28:28;;;;;;;43.67;24.92;;;;;;;-5.25;100.00;101950.78;4993192;28;20076;-62
2022/01/13 03:30:54;;;;;;;39.70;24.23;;;;;;;-5.23;100.00;101935.25;4993260;28;20121;-62
2022/01/13 03:33:20;;;;;;;39.13;22.65;;;;;;;-4.68;100.00;101940.56;4993119;28;20032;-62
2022/01/13 03:35:45;;;;;;;39.08;22.92;;;;;;;-5.06;100.00;101894.22;4994561;28;20030;-61
2022/01/13 03:38:11;;;;;;;36.67;22.33;;;;;;;-5.03;100.00;101939.03;4994493;28;20488;-62
2022/01/13 03:40:36;;;;;;;41.92;22.38;;;;;;;-4.61;100.00;101954.19;4992861;28;20479;-61
2022/01/13 03:43:04;;;;;;;40.63;21.77;;;;;;;-5.03;100.00;101904.34;4992748;28;20117;-63
2022/01/13 03:45:32;;;;;;;36.00;22.08;;;;;;;-4.93;100.00;101951.28;4994284;28;20910;-63
2022/01/13 03:47:57;;;;;;;37.22;22.23;;;;;;;-5.04;100.00;101950.56;4994364;28;20093;-64
2022/01/13 03:50:23;;;;;;;36.42;22.02;;;;;;;-4.97;100.00;101946.88;4992958;28;20038;-63
2022/01/13 03:53:01;;;;;;;37.33;21.15;;;;;;;-5.13;100.00;101959.03;4994386;28;20042;-63
2022/01/13 03:55:36;;;;;;;36.20;19.17;;;;;;;-4.47;100.00;101961.78;4994416;28;20180;-63
2022/01/13 03:58:38;;;;;;;35.38;19.33;;;;;;;-5.23;100.00;101965.00;4994323;28;20041;-63
2022/01/13 04:01:51;;;;;;;41.45;21.23;;;;;;;-4.79;100.00;101966.28;4992757;28;20385;-63
2022/01/13 04:04:17;;;;;;;37.17;20.33;;;;;;;-5.18;100.00;101928.97;4933779;29;20522;-63
2022/01/13 04:06:44;;;;;;;64.97;31.95;;;;;;;-5.00;100.00;101932.66;4985218;28;20042;-64
2022/01/13 04:09:33;;;;;;;59.67;33.00;;;;;;;-5.07;100.00;101975.13;4993469;28;20046;-63
2022/01/13 04:12:03;;;;;;;50.03;29.48;;;;;;;-5.24;100.00;101968.22;4993651;28;20062;-64
2022/01/13 04:14:43;;;;;;;47.47;27.25;;;;;;;-5.50;100.00;101938.34;4993524;28;20116;-64
2022/01/13 04:17:10;;;;;;;70.45;38.38;;;;;;;-5.17;100.00;101975.31;4993633;28;20026;-64
2022/01/13 04:19:36;;;;;;;71.95;37.78;;;;;;;-5.34;100.00;101951.00;4993643;28;20095;-63
2022/01/13 04:22:06;;;;;;;61.17;33.28;;;;;;;-5.30;100.00;101957.88;4993974;28;20038;-64
2022/01/13 04:24:32;;;;;;;60.65;34.00;;;;;;;-5.10;100.00;101959.22;4993927;28;20039;-64
2022/01/13 04:26:58;;;;;;;73.45;40.42;;;;;;;-5.09;100.00;101960.94;4993264;28;20034;-61
2022/01/13 04:29:35;;;;;;;144.25;67.15;;;;;;;-5.67;100.00;101937.22;4993468;28;20033;-62
2022/01/13 04:32:01;;;;;;;262.40;119.43;;;;;;;-5.76;100.00;101958.84;4992393;28;20026;-62
2022/01/13 04:34:26;;;;;;;109.47;55.33;;;;;;;-5.13;100.00;101959.03;4993386;28;20555;-63
2022/01/13 04:36:54;;;;;;;161.75;74.13;;;;;;;-5.33;100.00;101960.16;4992119;28;20030;-64
2022/01/13 04:39:21;;;;;;;94.93;47.55;;;;;;;-4.78;100.00;101969.63;4991084;28;20035;-64
2022/01/13 04:41:48;;;;;;;130.77;57.85;;;;;;;-5.47;100.00;101929.50;4993274;28;20034;-64
2022/01/13 04:44:17;;;;;;;155.82;67.97;;;;;;;-5.54;100.00;101976.91;4993047;28;20081;-66
2022/01/13 04:46:43;;;;;;;102.90;51.63;;;;;;;-5.48;100.00;101910.44;4992065;28;20426;-65
2022/01/13 04:49:09;;;;;;;97.88;47.75;;;;;;;-5.40;100.00;101970.41;4993070;28;20027;-63
2022/01/13 04:51:35;;;;;;;91.25;46.38;;;;;;;-5.01;100.00;101948.28;4993328;28;20041;-64
2022/01/13 04:54:01;;;;;;;96.20;42.33;;;;;;;-5.91;100.00;101938.03;4992753;28;20460;-63
2022/01/13 04:56:30;;;;;;;82.68;40.25;;;;;;;-5.35;100.00;101979.88;4992893;28;20037;-63
2022/01/13 04:58:55;;;;;;;76.70;39.33;;;;;;;-5.96;100.00;101909.63;4992472;28;20468;-65
2022/01/13 05:01:21;;;;;;;71.05;38.10;;;;;;;-5.28;100.00;101986.09;4993132;28;20034;-64
2022/01/13 05:03:47;;;;;;;70.45;37.88;;;;;;;-5.69;100.00;101937.88;4992669;28;20046;-64
2022/01/13 05:06:19;;;;;;;56.08;30.38;;;;;;;-5.03;100.00;101961.34;4991107;28;20507;-63
2022/01/13 05:08:44;;;;;;;;;;;;;;;-4.90;100.00;101977.13;4993034;28;20030;-63
2022/01/13 05:11:10;;;;;;;86.45;44.58;;;;;;;-5.39;100.00;101930.03;4992558;28;19914;-64
2022/01/13 05:13:35;;;;;;;100.80;53.50;;;;;;;-5.48;100.00;101978.94;4992484;28;20030;-64
2022/01/13 05:16:00;;;;;;;109.68;57.42;;;;;;;-5.86;100.00;101949.09;4992402;28;20030;-62
2022/01/13 05:18:41;;;;;;;96.70;52.67;;;;;;;-5.68;100.00;101907.38;4991268;28;20031;-63
2022/01/13 05:21:17;;;;;;;147.90;83.80;;;;;;;-5.67;100.00;101942.16;4992116;28;20030;-63
2022/01/13 05:23:43;;;;;;;108.75;62.30;;;;;;;-6.25;100.00;101948.81;4992477;28;20031;-63
2022/01/13 05:26:10;;;;;;;190.40;94.68;;;;;;;-5.39;100.00;101984.53;4979317;28;20064;-61
2022/01/13 05:28:36;;;;;;;157.23;82.22;;;;;;;-5.42;100.00;101945.53;4972771;28;20027;-65
2022/01/13 05:31:01;;;;;;;136.43;73.00;;;;;;;-5.49;100.00;101983.06;4972465;28;20027;-66
2022/01/13 05:33:26;;;;;;;136.52;75.05;;;;;;;-5.65;100.00;101952.19;4972714;28;20485;-63
2022/01/13 05:35:52;;;;;;;120.20;68.03;;;;;;;-5.33;100.00;101989.91;4987668;28;20031;-63
2022/01/13 05:38:18;;;;;;;124.13;68.63;;;;;;;-5.32;100.00;101966.81;4972902;28;20413;-63
2022/01/13 05:40:44;;;;;;;111.78;64.07;;;;;;;-5.48;100.00;101967.41;4972235;28;20023;-63
2022/01/13 05:43:09;;;;;;;106.43;57.47;;;;;;;-5.61;100.00;101954.97;4972700;28;20033;-63
2022/01/13 05:45:35;;;;;;;97.13;54.35;;;;;;;-5.55;100.00;102006.53;4970156;28;20039;-64
2022/01/13 05:48:02;;;;;;;112.45;57.17;;;;;;;-4.72;100.00;101950.19;4979309;28;20046;-63
2022/01/13 05:50:30;;;;;;;115.93;60.38;;;;;;;-5.56;100.00;101985.84;4991322;28;20049;-65
2022/01/13 05:52:57;;;;;;;117.13;59.22;;;;;;;-5.36;100.00;102007.88;4991934;28;20507;-65
2022/01/13 05:55:23;;;;;;;99.32;51.75;;;;;;;-5.33;100.00;101956.06;4991661;28;20042;-65
2022/01/13 05:57:49;;;;;;;121.40;62.92;;;;;;;-4.89;100.00;101997.81;4988222;28;20558;-63
2022/01/13 06:00:17;;;;;;;98.13;53.63;;;;;;;-5.19;100.00;101999.13;4991216;28;20114;-64
2022/01/13 06:02:44;;;;;;;90.72;47.88;;;;;;;-4.96;100.00;101976.72;4989842;28;20132;-64
2022/01/13 06:05:10;;;;;;;78.97;43.63;;;;;;;-4.95;100.00;101928.00;4991168;28;20411;-64
2022/01/13 06:07:35;;;;;;;81.80;43.75;;;;;;;-5.16;100.00;101962.16;4989547;28;20089;-64
2022/01/13 06:10:02;;;;;;;87.15;47.42;;;;;;;-4.82;100.00;102030.56;4990655;28;20038;-64
2022/01/13 06:12:37;;;;;;;129.63;59.65;;;;;;;-5.20;100.00;102036.16;4989335;28;20061;-64
2022/01/13 06:15:08;;;;;;;105.43;50.28;;;;;;;-5.04;100.00;101954.66;4990859;28;20023;-64
2022/01/13 06:17:35;;;;;;;80.32;42.15;;;;;;;-5.43;100.00;101990.88;4991282;28;20087;-64
2022/01/13 06:20:01;;;;;;;81.43;41.00;;;;;;;-4.68;100.00;102044.72;4991237;28;20030;-64
2022/01/13 06:22:27;;;;;;;74.72;38.22;;;;;;;-4.56;100.00;102000.91;4991482;28;20034;-64
2022/01/13 06:24:53;;;;;;;67.03;36.38;;;;;;;-2.87;100.00;102060.31;4991491;28;20084;-64
2022/01/13 06:27:21;;;;;;;69.85;35.90;;;;;;;-2.46;100.00;102051.16;4991192;28;20034;-63
2022/01/13 06:29:47;;;;;;;75.18;40.10;;;;;;;-3.49;100.00;102004.38;4991162;28;20042;-64
2022/01/13 06:32:12;;;;;;;78.20;42.78;;;;;;;-3.01;100.00;102003.94;4991355;28;20463;-65
2022/01/13 06:34:38;;;;;;;74.43;42.72;;;;;;;-1.32;100.00;101991.03;4990590;28;20109;-65
2022/01/13 06:37:03;;;;;;;68.47;39.78;;;;;;;-2.60;100.00;102022.13;4989973;28;20042;-65
2022/01/13 06:39:29;;;;;;;69.20;38.22;;;;;;;-2.96;100.00;102040.75;4991091;28;20389;-65
2022/01/13 06:41:54;;;;;;;52.67;28.80;;;;;;;-3.97;100.00;102044.41;4989898;28;20045;-64
2022/01/13 06:44:20;;;;;;;45.15;23.58;;;;;;;-3.92;100.00;102023.19;4990055;28;20030;-66
2022/01/13 06:46:45;;;;;;;49.50;23.42;;;;;;;-2.04;100.00;102073.50;4990963;28;20042;-64
2022/01/13 06:49:10;;;;;;;70.07;37.05;;;;;;;-2.26;100.00;101983.44;4991073;28;20038;-65
2022/01/13 06:51:36;;;;;;;47.95;26.33;;;;;;;-1.17;100.00;102065.00;4991186;28;20065;-65
2022/01/13 06:54:02;;;;;;;71.32;40.20;;;;;;;1.33;100.00;102056.28;4990039;28;20038;-65
2022/01/13 06:56:27;;;;;;;98.18;49.55;;;;;;;0.98;100.00;102015.47;4989672;28;20030;-64
2022/01/13 06:58:53;;;;;;;40.40;22.90;;;;;;;0.72;100.00;102024.34;4990954;28;20507;-64
2022/01/13 07:01:21;;;;;;;27.10;16.73;;;;;;;0.49;100.00;102012.47;4990830;28;20488;-65
2022/01/13 07:03:47;;;;;;;27.73;17.40;;;;;;;2.44;100.00;102008.94;4990611;28;20549;-65
2022/01/13 07:06:12;;;;;;;33.42;21.23;;;;;;;0.84;100.00;102039.91;4991250;28;20109;-65
2022/01/13 07:08:37;;;;;;;74.07;39.20;;;;;;;3.16;100.00;102009.09;4991048;28;20029;-65
2022/01/13 07:11:04;;;;;;;77.93;41.72;;;;;;;3.13;100.00;102031.59;4990688;28;20034;-65
2022/01/13 07:13:30;;;;;;;64.60;38.05;;;;;;;3.89;98.33;102031.66;4989898;28;20495;-65
2022/01/13 07:15:58;;;;;;;87.50;48.08;;;;;;;2.13;100.00;102027.00;4989663;28;20053;-65
2022/01/13 07:18:24;;;;;;;99.30;55.45;;;;;;;0.63;100.00;102046.47;4990803;28;20076;-64
2022/01/13 07:20:49;;;;;;;76.28;43.83;;;;;;;-0.28;100.00;102009.66;4990957;28;20029;-64
2022/01/13 07:23:15;;;;;;;28.17;18.38;;;;;;;-1.06;100.00;102013.19;4991016;28;20022;-65
2022/01/13 07:25:40;;;;;;;22.85;14.20;;;;;;;-0.32;100.00;102029.44;4990731;28;20026;-65
2022/01/13 07:28:06;;;;;;;16.50;11.27;;;;;;;0.22;100.00;102023.72;4990721;28;20433;-65
2022/01/13 07:30:33;;;;;;;28.13;17.17;;;;;;;-0.68;100.00;102058.44;4990445;28;20543;-64
2022/01/13 07:32:58;;;;;;;23.13;14.35;;;;;;;-2.68;100.00;102046.59;4990747;28;20151;-65
2022/01/13 07:35:24;;;;;;;27.48;15.57;;;;;;;-2.45;100.00;102013.03;4990631;28;20061;-64
2022/01/13 07:37:50;;;;;;;26.25;16.02;;;;;;;-2.24;100.00;102016.72;4989517;28;20023;-64
2022/01/13 07:40:17;;;;;;;29.85;16.52;;;;;;;-0.88;100.00;102066.53;4990583;28;20026;-65
2022/01/13 07:42:44;;;;;;;22.35;13.32;;;;;;;-1.12;100.00;102087.72;4990644;28;20022;-65
2022/01/13 07:45:11;;;;;;;30.23;15.52;;;;;;;-1.12;100.00;102051.16;4991767;28;20551;-65
2022/01/13 07:47:36;;;;;;;70.55;32.83;;;;;;;0.07;100.00;102090.47;4994199;28;20416;-65
2022/01/13 07:50:03;;;;;;;74.93;33.28;;;;;;;-0.63;100.00;102081.97;4994130;28;20031;-65
2022/01/13 07:52:29;;;;;;;28.75;18.27;;;;;;;-0.57;100.00;102067.31;4994187;28;20037;-65
2022/01/13 07:54:54;;;;;;;32.25;17.67;;;;;;;-0.34;100.00;102018.50;4992642;28;20026;-65
2022/01/13 07:57:20;;;;;;;54.15;26.38;;;;;;;-0.23;100.00;102054.84;4994263;28;20069;-64
2022/01/13 07:59:45;;;;;;;69.43;32.53;;;;;;;0.25;100.00;102079.72;4993988;28;20038;-64
2022/01/13 08:02:10;;;;;;;32.47;19.35;;;;;;;-0.81;100.00;102020.31;4993858;28;20440;-65
2022/01/13 08:04:36;;;;;;;45.03;23.80;;;;;;;-0.03;100.00;102052.53;4993858;28;20420;-65
2022/01/13 08:07:01;;;;;;;30.58;15.98;;;;;;;0.42;100.00;102088.00;4994169;28;20030;-65
2022/01/13 08:09:27;;;;;;;25.35;13.75;;;;;;;0.03;100.00;102073.59;4993926;28;20070;-65
2022/01/13 08:11:52;;;;;;;81.72;32.75;;;;;;;0.09;100.00;102089.78;4993722;28;20034;-64
2022/01/13 08:14:18;;;;;;;31.13;18.33;;;;;;;-0.74;100.00;102042.28;4993711;28;20104;-65
2022/01/13 08:16:44;;;;;;;18.98;11.30;;;;;;;-1.39;100.00;102089.63;4993465;28;20480;-65
2022/01/13 08:21:54;;;;;;;22.08;12.50;;;;;;;-1.05;100.00;102073.16;4993860;28;20037;-65
2022/01/13 08:24:20;;;;;;;34.20;19.52;;;;;;;-1.00;100.00;102070.91;4993658;28;20026;-65
2022/01/13 08:26:45;;;;;;;26.80;15.45;;;;;;;-0.98;100.00;102089.31;4993772;28;20039;-64
2022/01/13 08:29:11;;;;;;;22.90;13.30;;;;;;;-1.90;100.00;102024.44;4992082;28;20042;-65
2022/01/13 08:31:36;;;;;;;24.20;13.45;;;;;;;-1.51;100.00;102043.22;4993504;28;20112;-64
2022/01/13 08:34:03;;;;;;;29.33;16.65;;;;;;;-0.75;100.00;102065.53;4993593;28;20022;-65
2022/01/13 08:36:29;;;;;;;34.13;20.38;;;;;;;-0.57;100.00;102073.94;4993338;28;20057;-65
2022/01/13 08:38:54;;;;;;;32.60;19.17;;;;;;;-0.60;100.00;102079.66;4993368;28;20057;-64
2022/01/13 08:41:20;;;;;;;54.72;24.80;;;;;;;-0.96;100.00;102037.84;4993123;28;20135;-65
2022/01/13 08:43:45;;;;;;;28.67;17.48;;;;;;;-0.73;100.00;102082.28;4993413;28;20113;-65
2022/01/13 08:46:11;;;;;;;24.05;15.10;;;;;;;-0.67;100.00;102037.66;4991902;28;20034;-65
2022/01/13 08:48:36;;;;;;;20.65;13.40;;;;;;;-0.21;100.00;102080.78;4991852;28;20113;-65
2022/01/13 08:51:03;;;;;;;21.85;13.57;;;;;;;-0.55;100.00;102053.25;4992924;28;20026;-65
2022/01/13 08:53:29;;;;;;;21.58;12.43;;;;;;;-0.33;100.00;102033.56;4993078;28;20027;-65
2022/01/13 08:55:55;;;;;;;41.45;19.42;;;;;;;-0.56;100.00;102039.06;4992373;28;20037;-64
2022/01/13 08:58:23;;;;;;;45.38;22.45;;;;;;;-0.41;100.00;102082.28;4992320;28;20038;-64
2022/01/13 09:00:52;;;;;;;173.02;49.70;;;;;;;-0.67;100.00;102057.63;4991859;28;20416;-64
2022/01/13 09:03:18;;;;;;;26.17;14.30;;;;;;;-0.05;100.00;102066.63;4992759;28;20062;-64
2022/01/13 09:05:44;;;;;;;19.73;11.80;;;;;;;0.00;100.00;102069.34;4992828;28;20053;-64
2022/01/13 09:08:10;;;;;;;43.90;17.90;;;;;;;0.03;100.00;102066.09;4992832;28;20027;-64
2022/01/13 09:10:39;;;;;;;23.40;12.93;;;;;;;-0.07;100.00;101984.84;4992306;28;20034;-65
2022/01/13 09:13:11;;;;;;;124.80;32.90;;;;;;;0.08;100.00;102058.03;4992853;28;20031;-64
2022/01/13 09:15:39;;;;;;;132.05;35.13;;;;;;;0.17;100.00;102056.00;4992738;28;20031;-65
2022/01/13 09:18:17;;;;;;;39.60;17.88;;;;;;;0.32;100.00;102043.34;4991179;28;20034;-65
2022/01/13 09:20:43;;;;;;;115.78;31.55;;;;;;;0.06;100.00;102058.78;4991138;28;20041;-64
2022/01/13 09:23:09;;;;;;;26.75;14.38;;;;;;;0.11;100.00;102049.84;4992285;28;20030;-64
2022/01/13 09:25:35;;;;;;;21.45;13.57;;;;;;;-0.05;100.00;102004.13;4992490;28;20449;-64
2022/01/13 09:28:04;;;;;;;23.67;14.85;;;;;;;0.03;100.00;102006.13;4992606;28;20034;-64
2022/01/13 09:30:29;;;;;;;28.95;19.30;;;;;;;0.54;100.00;102011.00;4992060;28;20034;-64
2022/01/13 09:32:54;;;;;;;32.28;18.17;;;;;;;0.89;100.00;101985.91;4991250;28;20037;-65
2022/01/13 09:35:20;;;;;;;76.45;25.33;;;;;;;0.91;100.00;102036.03;4992287;28;20425;-65
2022/01/13 09:37:46;;;;;;;33.97;15.13;;;;;;;1.04;100.00;102039.16;4991941;28;20456;-64
2022/01/13 09:40:12;;;;;;;26.95;15.43;;;;;;;0.98;100.00;102051.41;4992346;28;20042;-64
2022/01/13 09:42:40;;;;;;;27.13;15.57;;;;;;;0.59;100.00;102002.09;4992345;28;20029;-64
2022/01/13 09:45:07;;;;;;;21.00;12.65;;;;;;;1.03;100.00;102027.41;4991990;28;20026;-64
2022/01/13 09:47:35;;;;;;;20.48;12.57;;;;;;;0.70;100.00;102020.91;4992318;28;20422;-64
2022/01/13 09:50:01;;;;;;;24.23;15.50;;;;;;;1.10;100.00;102026.03;4991648;28;20026;-64
2022/01/13 09:52:27;;;;;;;54.15;26.17;;;;;;;1.32;100.00;102009.47;4992131;28;20048;-64
2022/01/13 09:54:53;;;;;;;21.05;13.23;;;;;;;0.60;100.00;102014.66;4991997;28;20031;-65
2022/01/13 09:57:19;;;;;;;21.45;14.02;;;;;;;0.96;100.00;101946.97;4991787;28;20046;-65
2022/01/13 09:59:44;;;;;;;27.02;19.13;;;;;;;0.75;100.00;101944.41;4992211;28;20031;-65
2022/01/13 10:02:10;;;;;;;23.90;14.20;;;;;;;1.36;100.00;101983.78;4992006;28;20641;-64
2022/01/13 10:04:51;;;;;;;28.88;17.35;;;;;;;1.33;100.00;101938.53;4990107;28;20413;-64
2022/01/13 10:07:35;;;;;;;24.83;16.00;;;;;;;1.68;100.00;101987.59;4991826;28;20030;-64
2022/01/13 10:10:05;;;;;;;24.33;16.08;;;;;;;1.62;100.00;101937.22;4991709;28;20030;-64
2022/01/13 10:12:38;;;;;;;18.73;11.85;;;;;;;1.83;100.00;101990.69;4991640;28;20424;-63
2022/01/13 10:17:59;;;;;;;20.17;13.80;;;;;;;1.71;100.00;101920.88;4991718;28;20037;-63
2022/01/13 10:20:25;;;;;;;21.05;12.85;;;;;;;1.70;100.00;101945.91;4990217;28;20038;-64
2022/01/13 10:22:51;;;;;;;17.60;11.40;;;;;;;1.86;100.00;101907.22;4990285;28;20085;-64
2022/01/13 10:25:36;;;;;;;21.95;12.82;;;;;;;2.11;100.00;101949.97;4991459;28;20116;-65
2022/01/13 10:28:13;;;;;;;15.00;9.70;;;;;;;1.85;100.00;101890.47;4991577;28;20085;-64
2022/01/13 10:30:39;;;;;;;14.70;9.43;;;;;;;2.28;100.00;101934.75;4991097;28;20432;-64
2022/01/13 10:33:20;;;;;;;16.88;9.98;;;;;;;2.56;100.00;101934.09;4991309;28;20034;-64
2022/01/13 10:35:46;;;;;;;13.10;9.07;;;;;;;2.65;100.00;101926.91;4991139;28;20115;-64
2022/01/13 10:38:16;;;;;;;21.25;13.32;;;;;;;2.24;100.00;101870.22;4989852;28;20034;-65
2022/01/13 10:40:44;;;;;;;15.75;10.52;;;;;;;2.29;100.00;101863.72;4991266;28;20034;-65
2022/01/13 10:43:10;;;;;;;17.25;10.73;;;;;;;2.48;100.00;101870.22;4991308;28;20595;-64
2022/01/13 10:45:56;;;;;;;35.78;22.67;;;;;;;1.97;100.00;101865.84;4991454;28;20084;-64
2022/01/13 10:48:30;;;;;;;34.92;23.13;;;;;;;2.81;100.00;101855.47;4990870;28;20093;-63
2022/01/13 10:50:57;;;;;;;17.67;11.48;;;;;;;2.76;100.00;101885.44;4991155;28;20073;-64
2022/01/13 10:53:25;;;;;;;24.17;17.23;;;;;;;2.67;100.00;101854.16;4991240;28;20030;-64
2022/01/13 10:55:54;;;;;;;16.20;11.38;;;;;;;2.22;100.00;101820.81;4991113;28;20026;-65
2022/01/13 10:58:29;;;;;;;13.05;9.00;;;;;;;2.46;100.00;101864.31;4991030;28;20030;-65
2022/01/13 11:00:55;;;;;;;15.23;9.15;;;;;;;2.66;100.00;101883.41;4990924;28;20033;-64
2022/01/13 11:03:24;;;;;;;14.57;9.32;;;;;;;2.31;100.00;101843.69;4991199;28;20065;-65
2022/01/13 11:05:52;;;;;;;13.13;8.88;;;;;;;2.31;100.00;101839.53;4991214;28;20033;-64
2022/01/13 11:08:39;;;;;;;16.10;10.25;;;;;;;2.70;100.00;101875.19;4991019;28;20069;-65
2022/01/13 11:11:05;;;;;;;17.42;11.50;;;;;;;2.58;100.00;101848.03;4990550;28;20035;-64
2022/01/13 11:13:36;;;;;;;18.92;11.80;;;;;;;2.52;100.00;101859.50;4990673;28;20045;-64
2022/01/13 11:16:02;;;;;;;17.80;11.80;;;;;;;2.52;100.00;101855.34;4991063;28;20042;-64
2022/01/13 11:18:33;;;;;;;20.20;12.32;;;;;;;2.34;100.00;101816.19;4990856;28;20113;-64
2022/01/13 11:21:02;;;;;;;16.77;10.85;;;;;;;2.36;100.00;101835.53;4993698;28;20489;-64
2022/01/13 11:23:27;;;;;;;16.92;10.63;;;;;;;2.47;100.00;101858.50;4994978;28;20030;-64
2022/01/13 11:25:56;;;;;;;17.88;11.30;;;;;;;2.55;100.00;101839.53;4994340;28;20175;-64
2022/01/13 11:28:22;;;;;;;18.38;10.90;;;;;;;2.51;100.00;101862.81;4994692;28;20092;-64
2022/01/13 11:30:50;;;;;;;18.98;12.38;;;;;;;2.93;100.00;101838.31;4994714;28;20030;-64
2022/01/13 11:33:19;;;;;;;17.90;11.88;;;;;;;2.45;100.00;101847.56;4994567;28;20404;-64
2022/01/13 11:35:50;;;;;;;15.88;9.98;;;;;;;2.70;100.00;101887.75;4994834;28;20117;-64